createdAt,value
2017-08-17T00:02:12.763Z,92.24
2017-08-17T00:04:42.993Z,92.51
2017-08-17T00:07:12.488Z,92.82
2017-08-17T00:09:43.706Z,92.92
2017-08-17T00:12:12.442Z,93.01
2017-08-17T00:14:41.778Z,93.12
2017-08-17T00:17:10.408Z,93.15
2017-08-17T00:19:38.841Z,92.92
2017-08-17T00:22:09.430Z,93.06
2017-08-17T00:24:37.849Z,92.72
2017-08-17T00:27:08.761Z,92.45
2017-08-17T00:29:36.763Z,92.49
2017-08-17T00:32:05.044Z,92.66
2017-08-17T00:34:33.879Z,92.42
2017-08-17T00:37:02.842Z,92.55
2017-08-17T00:39:31.797Z,92.95
2017-08-17T00:42:03.439Z,93.08
2017-08-17T00:44:32.903Z,93.04
2017-08-17T00:47:02.631Z,92.96
2017-08-17T00:49:32.413Z,92.80
2017-08-17T00:52:02.007Z,92.87
2017-08-17T00:54:31.161Z,93.04
2017-08-17T00:57:01.107Z,93.14
2017-08-17T00:59:30.975Z,93.35
2017-08-17T01:02:00.369Z,93.04
2017-08-17T01:04:30.090Z,92.71
2017-08-17T01:06:59.779Z,92.52
2017-08-17T01:09:27.831Z,92.72
2017-08-17T01:11:57.019Z,92.78
2017-08-17T01:14:25.113Z,93.02
2017-08-17T01:16:54.356Z,93.22
2017-08-17T01:19:25.408Z,93.47
2017-08-17T01:21:57.710Z,93.38
2017-08-17T01:24:28.433Z,93.28
2017-08-17T01:26:57.070Z,93.10
2017-08-17T01:29:25.837Z,93.15
2017-08-17T01:31:57.531Z,93.17
2017-08-17T01:34:27.157Z,93.08
2017-08-17T01:36:56.773Z,92.96
2017-08-17T01:39:25.042Z,92.65
2017-08-17T01:41:54.169Z,92.63
2017-08-17T01:44:23.566Z,92.60
2017-08-17T01:46:53.618Z,92.55
2017-08-17T01:49:22.128Z,92.42
2017-08-17T01:51:51.425Z,92.33
2017-08-17T01:54:20.268Z,92.42
2017-08-17T01:56:50.698Z,92.48
2017-08-17T01:59:22.686Z,92.52
2017-08-17T02:01:51.412Z,92.48
2017-08-17T02:04:22.136Z,92.52
2017-08-17T02:06:51.324Z,92.33
2017-08-17T02:09:20.680Z,92.22
2017-08-17T02:11:49.100Z,92.36
2017-08-17T02:14:20.965Z,92.35
2017-08-17T02:16:49.846Z,92.16
2017-08-17T02:19:19.813Z,92.15
2017-08-17T02:21:49.257Z,92.33
2017-08-17T02:24:18.823Z,92.23
2017-08-17T02:26:46.833Z,92.14
2017-08-17T02:29:14.750Z,92.06
2017-08-17T02:31:44.353Z,92.17
2017-08-17T02:34:12.329Z,92.49
2017-08-17T02:36:42.493Z,92.66
2017-08-17T02:39:10.882Z,92.65
2017-08-17T02:41:40.730Z,92.19
2017-08-17T02:44:08.594Z,92.58
2017-08-17T02:46:36.643Z,92.52
2017-08-17T02:49:04.570Z,92.49
2017-08-17T02:51:33.483Z,92.52
2017-08-17T02:54:03.077Z,92.43
2017-08-17T02:56:32.086Z,92.50
2017-08-17T02:59:00.933Z,92.60
2017-08-17T03:01:29.594Z,92.41
2017-08-17T03:03:59.467Z,92.25
2017-08-17T03:06:27.506Z,92.22
2017-08-17T03:08:57.698Z,92.27
2017-08-17T03:13:58.810Z,92.51
2017-08-17T03:16:28.593Z,92.64
2017-08-17T03:18:58.324Z,92.93
2017-08-17T03:21:29.911Z,93.40
2017-08-17T03:23:58.952Z,93.48
2017-08-17T03:26:26.976Z,93.36
2017-08-17T03:28:57.446Z,93.36
2017-08-17T03:31:26.843Z,93.34
2017-08-17T03:33:56.380Z,93.28
2017-08-17T03:36:24.983Z,93.11
2017-08-17T03:38:55.991Z,93.21
2017-08-17T03:41:25.469Z,93.16
2017-08-17T03:43:54.583Z,92.87
2017-08-17T03:46:23.718Z,92.64
2017-08-17T03:48:55.788Z,92.51
2017-08-17T03:51:24.503Z,92.61
2017-08-17T03:53:56.617Z,92.94
2017-08-17T03:56:25.262Z,93.27
2017-08-17T03:58:53.072Z,93.31
2017-08-17T04:01:24.407Z,93.14
2017-08-17T04:03:53.552Z,93.18
2017-08-17T04:06:22.024Z,93.12
2017-08-17T04:08:49.897Z,93.06
2017-08-17T04:11:18.549Z,93.07
2017-08-17T04:13:47.282Z,92.80
2017-08-17T04:16:15.537Z,92.68
2017-08-17T04:18:43.424Z,92.62
2017-08-17T04:21:11.912Z,92.44
2017-08-17T04:23:41.553Z,92.34
2017-08-17T04:26:11.750Z,92.22
2017-08-17T04:28:39.705Z,92.32
2017-08-17T04:31:09.970Z,92.44
2017-08-17T04:33:38.804Z,92.40
2017-08-17T04:36:08.032Z,92.17
2017-08-17T04:38:36.024Z,92.20
2017-08-17T04:41:06.099Z,92.19
2017-08-17T04:43:34.976Z,92.05
2017-08-17T04:46:04.216Z,91.92
2017-08-17T04:48:33.579Z,91.80
2017-08-17T04:51:01.882Z,91.73
2017-08-17T04:53:31.971Z,91.87
2017-08-17T04:56:17.411Z,91.71
2017-08-17T04:58:45.698Z,91.54
2017-08-17T05:01:17.181Z,91.48
2017-08-17T05:03:46.173Z,91.45
2017-08-17T05:06:15.407Z,91.37
2017-08-17T05:08:43.300Z,91.22
2017-08-17T05:11:14.096Z,90.73
2017-08-17T05:13:43.110Z,89.78
2017-08-17T05:16:11.962Z,89.19
2017-08-17T05:18:41.021Z,88.39
2017-08-17T05:21:10.448Z,87.50
2017-08-17T05:23:39.181Z,87.66
2017-08-17T05:26:13.548Z,87.60
2017-08-17T05:28:41.673Z,87.25
2017-08-17T05:31:09.433Z,87.24
2017-08-17T05:33:38.541Z,87.85
2017-08-17T05:36:08.360Z,88.65
2017-08-17T05:38:38.688Z,89.59
2017-08-17T05:41:09.105Z,90.49
2017-08-17T05:43:39.480Z,90.96
2017-08-17T05:46:08.192Z,91.20
2017-08-17T05:48:36.087Z,91.30
2017-08-17T05:51:06.348Z,91.43
2017-08-17T05:53:35.693Z,91.62
2017-08-17T05:56:05.286Z,91.45
2017-08-17T05:58:34.280Z,91.32
2017-08-17T06:01:03.406Z,91.24
2017-08-17T06:03:33.704Z,90.83
2017-08-17T06:06:02.830Z,90.97
2017-08-17T06:08:32.243Z,90.93
2017-08-17T06:11:00.163Z,91.20
2017-08-17T06:13:30.663Z,90.36
2017-08-17T06:15:58.644Z,89.88
2017-08-17T06:18:29.946Z,89.94
2017-08-17T06:20:58.648Z,89.95
2017-08-17T06:23:26.533Z,90.10
2017-08-17T06:25:54.856Z,90.50
2017-08-17T06:28:23.031Z,90.30
2017-08-17T06:30:52.153Z,90.19
2017-08-17T06:33:21.484Z,89.95
2017-08-17T06:35:51.111Z,89.58
2017-08-17T06:38:20.637Z,89.47
2017-08-17T06:40:49.338Z,89.06
2017-08-17T06:43:18.178Z,89.43
2017-08-17T06:45:47.240Z,88.75
2017-08-17T06:48:18.148Z,88.54
2017-08-17T06:50:47.534Z,87.98
2017-08-17T06:53:16.043Z,86.93
2017-08-17T06:55:45.877Z,86.19
2017-08-17T06:58:14.404Z,86.34
2017-08-17T07:00:44.190Z,86.51
2017-08-17T07:03:15.368Z,85.70
2017-08-17T07:05:44.507Z,85.45
2017-08-17T07:08:14.004Z,84.50
2017-08-17T07:10:42.247Z,83.94
2017-08-17T07:13:11.230Z,83.87
2017-08-17T07:15:42.671Z,83.07
2017-08-17T07:18:11.984Z,83.58
2017-08-17T07:20:43.394Z,82.93
2017-08-17T07:23:11.642Z,81.46
2017-08-17T07:25:39.716Z,81.23
2017-08-17T07:28:10.162Z,81.54
2017-08-17T07:30:39.290Z,81.62
2017-08-17T07:33:07.682Z,81.31
2017-08-17T07:35:36.540Z,80.66
2017-08-17T07:38:04.538Z,79.94
2017-08-17T07:40:33.238Z,80.29
2017-08-17T07:43:02.897Z,80.16
2017-08-17T07:45:32.993Z,77.94
2017-08-17T07:48:02.527Z,79.04
2017-08-17T07:50:33.333Z,79.26
2017-08-17T07:53:03.353Z,79.26
2017-08-17T07:55:33.906Z,77.71
2017-08-17T07:58:03.568Z,77.71
2017-08-17T08:00:32.320Z,76.93
2017-08-17T08:03:02.611Z,76.94
2017-08-17T08:05:31.449Z,76.56
2017-08-17T08:08:03.249Z,75.51
2017-08-17T08:10:33.306Z,75.96
2017-08-17T08:13:03.546Z,75.62
2017-08-17T08:15:33.722Z,76.90
2017-08-17T08:18:02.732Z,76.61
2017-08-17T08:20:31.005Z,75.62
2017-08-17T08:23:01.417Z,75.14
2017-08-17T08:25:30.033Z,75.14
2017-08-17T08:27:59.230Z,77.00
2017-08-17T08:30:29.465Z,74.20
2017-08-17T08:32:58.644Z,74.71
2017-08-17T08:35:27.439Z,74.28
2017-08-17T08:37:57.678Z,74.62
2017-08-17T08:40:26.502Z,73.75
2017-08-17T08:42:55.607Z,73.37
2017-08-17T08:45:26.403Z,72.41
2017-08-17T08:47:57.669Z,72.61
2017-08-17T08:50:27.518Z,71.95
2017-08-17T08:52:56.940Z,72.38
2017-08-17T08:55:26.724Z,70.21
2017-08-17T08:57:56.605Z,69.59
2017-08-17T09:00:27.592Z,69.26
2017-08-17T09:02:56.474Z,70.11
2017-08-17T09:05:27.267Z,71.93
2017-08-17T09:07:57.846Z,71.60
2017-08-17T09:10:29.211Z,71.62
2017-08-17T09:12:58.350Z,71.33
2017-08-17T09:15:29.053Z,69.36
2017-08-17T09:17:57.792Z,68.59
2017-08-17T09:20:27.420Z,68.05
2017-08-17T09:22:55.323Z,68.99
2017-08-17T09:25:25.337Z,69.28
2017-08-17T09:27:55.438Z,69.23
2017-08-17T09:30:25.658Z,71.11
2017-08-17T09:32:55.046Z,71.04
2017-08-17T09:35:27.194Z,70.29
2017-08-17T09:37:57.038Z,71.39
2017-08-17T09:40:29.192Z,71.12
2017-08-17T09:42:58.461Z,70.86
2017-08-17T09:45:27.009Z,72.45
2017-08-17T09:47:55.780Z,72.68
2017-08-17T09:50:24.875Z,72.88
2017-08-17T09:52:53.999Z,73.97
2017-08-17T09:55:22.646Z,74.32
2017-08-17T09:57:52.869Z,74.72
2017-08-17T10:00:22.733Z,75.33
2017-08-17T10:02:52.485Z,75.05
2017-08-17T10:05:21.518Z,76.24
2017-08-17T10:07:51.204Z,74.95
2017-08-17T10:10:19.830Z,73.74
2017-08-17T10:12:50.253Z,73.09
2017-08-17T10:15:20.819Z,73.03
2017-08-17T10:17:49.489Z,71.33
2017-08-17T10:20:19.776Z,72.25
2017-08-17T10:22:50.346Z,71.70
2017-08-17T10:25:19.666Z,72.82
2017-08-17T10:27:48.334Z,72.33
2017-08-17T10:30:16.375Z,72.03
2017-08-17T10:32:46.125Z,70.66
2017-08-17T10:35:16.373Z,71.23
2017-08-17T10:37:45.326Z,71.06
2017-08-17T10:40:16.833Z,70.43
2017-08-17T10:42:46.610Z,68.38
2017-08-17T10:45:15.469Z,67.88
2017-08-17T10:47:44.842Z,67.94
2017-08-17T10:50:12.912Z,68.37
2017-08-17T10:52:42.670Z,68.27
2017-08-17T10:55:11.126Z,66.90
2017-08-17T10:57:41.268Z,67.04
2017-08-17T11:00:10.517Z,67.17
2017-08-17T11:02:38.522Z,66.64
2017-08-17T11:05:08.370Z,66.79
2017-08-17T11:07:37.733Z,66.36
2017-08-17T11:10:07.689Z,64.57
2017-08-17T11:12:36.766Z,64.05
2017-08-17T11:15:08.029Z,62.95
2017-08-17T11:17:38.306Z,63.43
2017-08-17T11:20:06.813Z,63.70
2017-08-17T11:22:36.549Z,63.80
2017-08-17T11:25:07.674Z,64.63
2017-08-17T11:27:36.903Z,64.13
2017-08-17T11:30:06.146Z,65.13
2017-08-17T11:32:35.429Z,65.37
2017-08-17T11:35:07.120Z,65.21
2017-08-17T11:37:36.533Z,65.14
2017-08-17T11:40:04.447Z,64.94
2017-08-17T11:42:33.016Z,64.36
2017-08-17T11:45:02.740Z,64.96
2017-08-17T11:47:32.655Z,64.76
2017-08-17T11:50:02.213Z,64.01
2017-08-17T11:52:30.798Z,64.84
2017-08-17T11:54:59.947Z,64.20
2017-08-17T11:57:29.201Z,63.75
2017-08-17T11:59:59.170Z,64.86
2017-08-17T12:02:27.709Z,64.22
2017-08-17T12:05:00.153Z,64.51
2017-08-17T12:07:29.584Z,65.33
2017-08-17T12:09:58.371Z,66.37
2017-08-17T12:12:31.681Z,64.43
2017-08-17T12:15:00.820Z,65.22
2017-08-17T12:17:29.913Z,65.27
2017-08-17T12:20:00.021Z,65.66
2017-08-17T12:22:31.420Z,65.82
2017-08-17T12:25:01.690Z,66.18
2017-08-17T12:27:31.354Z,65.94
2017-08-17T12:30:00.074Z,66.87
2017-08-17T12:32:29.612Z,65.76
2017-08-17T12:34:58.460Z,65.93
2017-08-17T12:37:28.258Z,66.81
2017-08-17T12:39:59.378Z,66.43
2017-08-17T12:42:30.403Z,65.73
2017-08-17T12:45:01.777Z,66.30
2017-08-17T12:47:30.222Z,65.13
2017-08-17T12:49:58.726Z,64.82
2017-08-17T12:52:29.650Z,64.71
2017-08-17T12:55:00.536Z,65.54
2017-08-17T12:57:30.612Z,65.69
2017-08-17T12:59:58.549Z,65.42
2017-08-17T13:02:31.374Z,65.05
2017-08-17T13:05:00.124Z,64.19
2017-08-17T13:07:29.200Z,63.11
2017-08-17T13:09:58.777Z,63.55
2017-08-17T13:12:28.355Z,63.09
2017-08-17T13:14:57.823Z,63.18
2017-08-17T13:17:28.428Z,63.13
2017-08-17T13:19:57.383Z,62.86
2017-08-17T13:22:27.740Z,63.09
2017-08-17T13:24:56.662Z,62.96
2017-08-17T13:27:25.695Z,62.53
2017-08-17T13:29:55.736Z,63.80
2017-08-17T13:34:58.648Z,63.71
2017-08-17T13:37:26.469Z,64.99
2017-08-17T13:39:55.484Z,64.45
2017-08-17T13:42:24.247Z,64.56
2017-08-17T13:44:53.607Z,65.96
2017-08-17T13:47:21.996Z,64.64
2017-08-17T13:49:52.535Z,63.17
2017-08-17T13:52:21.048Z,64.43
2017-08-17T13:54:49.525Z,63.59
2017-08-17T13:57:18.988Z,64.08
2017-08-17T13:59:48.356Z,64.59
2017-08-17T14:02:17.416Z,64.47
2017-08-17T14:04:47.707Z,64.07
2017-08-17T14:07:20.558Z,63.54
2017-08-17T14:09:50.362Z,63.10
2017-08-17T14:12:18.617Z,63.72
2017-08-17T14:14:48.957Z,64.22
2017-08-17T14:17:16.989Z,64.62
2017-08-17T14:19:47.450Z,63.85
2017-08-17T14:22:15.404Z,65.76
2017-08-17T14:24:43.292Z,64.06
2017-08-17T14:27:14.326Z,63.99
2017-08-17T14:29:43.383Z,65.25
2017-08-17T14:32:11.442Z,65.65
2017-08-17T14:34:40.800Z,64.00
2017-08-17T14:37:11.106Z,64.08
2017-08-17T14:39:41.027Z,64.18
2017-08-17T14:42:11.042Z,64.03
2017-08-17T14:44:40.175Z,64.18
2017-08-17T14:47:09.569Z,64.73
2017-08-17T14:49:40.087Z,65.08
2017-08-17T14:52:09.341Z,65.80
2017-08-17T14:54:37.598Z,65.37
2017-08-17T14:57:05.618Z,65.52
2017-08-17T14:59:36.014Z,65.95
2017-08-17T15:02:04.515Z,68.03
2017-08-17T15:04:33.112Z,68.39
2017-08-17T15:07:03.547Z,68.01
2017-08-17T15:09:31.989Z,67.01
2017-08-17T15:12:00.154Z,67.30
2017-08-17T15:14:28.360Z,67.19
2017-08-17T15:16:58.074Z,66.58
2017-08-17T15:19:25.925Z,67.04
2017-08-17T15:21:53.891Z,67.92
2017-08-17T15:24:22.251Z,69.55
2017-08-17T15:26:50.761Z,69.94
2017-08-17T15:29:20.170Z,71.11
2017-08-17T15:31:49.965Z,72.15
2017-08-17T15:34:17.833Z,73.79
2017-08-17T15:36:49.392Z,73.58
2017-08-17T15:39:17.325Z,74.09
2017-08-17T15:41:47.998Z,74.79
2017-08-17T15:44:18.004Z,75.38
2017-08-17T15:46:46.756Z,75.93
2017-08-17T15:49:17.149Z,78.32
2017-08-17T15:51:45.856Z,79.19
2017-08-17T15:54:14.810Z,80.31
2017-08-17T15:56:42.904Z,80.63
2017-08-17T15:59:13.088Z,80.59
2017-08-17T16:01:42.931Z,81.85
2017-08-17T16:04:13.119Z,82.59
2017-08-17T16:06:42.655Z,82.58
2017-08-17T16:09:12.025Z,82.85
2017-08-17T16:11:42.182Z,83.46
2017-08-17T16:14:12.209Z,82.68
2017-08-17T16:16:41.718Z,83.25
2017-08-17T16:19:11.110Z,83.71
2017-08-17T16:21:40.349Z,86.06
2017-08-17T16:24:08.688Z,86.34
2017-08-17T16:26:40.051Z,86.28
2017-08-17T16:29:08.730Z,86.19
2017-08-17T16:31:39.247Z,86.60
2017-08-17T16:34:09.532Z,86.45
2017-08-17T16:36:38.163Z,87.04
2017-08-17T16:39:09.192Z,87.17
2017-08-17T16:41:39.038Z,87.29
2017-08-17T16:44:08.181Z,87.52
2017-08-17T16:46:37.746Z,88.60
2017-08-17T16:49:08.103Z,88.71
2017-08-17T16:51:37.927Z,88.66
2017-08-17T16:54:07.533Z,89.10
2017-08-17T16:56:36.049Z,89.05
2017-08-17T16:59:05.582Z,89.12
2017-08-17T17:01:35.785Z,88.58
2017-08-17T17:04:05.418Z,88.60
2017-08-17T17:06:36.229Z,88.48
2017-08-17T17:09:04.905Z,88.18
2017-08-17T17:11:34.675Z,88.98
2017-08-17T17:14:03.432Z,89.15
2017-08-17T17:16:33.242Z,89.56
2017-08-17T17:19:02.616Z,90.03
2017-08-17T17:21:30.521Z,90.14
2017-08-17T17:23:59.837Z,90.66
2017-08-17T17:26:29.088Z,91.09
2017-08-17T17:28:57.187Z,91.60
2017-08-17T17:31:25.336Z,91.70
2017-08-17T17:33:54.654Z,91.54
2017-08-17T17:36:23.047Z,91.77
2017-08-17T17:38:51.054Z,92.02
2017-08-17T17:41:20.478Z,92.05
2017-08-17T17:43:50.582Z,92.03
2017-08-17T17:46:20.097Z,92.09
2017-08-17T17:48:51.482Z,92.08
2017-08-17T17:51:20.962Z,92.28
2017-08-17T17:53:50.883Z,92.71
2017-08-17T17:56:19.883Z,92.80
2017-08-17T17:58:48.902Z,92.79
2017-08-17T18:01:17.692Z,92.87
2017-08-17T18:03:47.557Z,92.89
2017-08-17T18:06:16.760Z,92.93
2017-08-17T18:08:46.958Z,92.94
2017-08-17T18:11:15.982Z,92.81
2017-08-17T18:13:46.246Z,92.69
2017-08-17T18:16:15.311Z,92.50
2017-08-17T18:18:44.837Z,92.44
2017-08-17T18:21:14.492Z,92.54
2017-08-17T18:26:17.463Z,92.14
2017-08-17T18:28:47.615Z,92.43
2017-08-17T18:31:16.381Z,92.75
2017-08-17T18:33:44.304Z,92.81
2017-08-17T18:36:14.726Z,92.79
2017-08-17T18:38:43.841Z,92.88
2017-08-17T18:41:12.666Z,92.81
2017-08-17T18:43:42.795Z,92.34
2017-08-17T18:46:12.625Z,92.44
2017-08-17T18:48:45.321Z,91.99
2017-08-17T18:51:14.649Z,92.02
2017-08-17T18:53:43.820Z,91.92
2017-08-17T18:56:13.298Z,91.90
2017-08-17T18:58:45.856Z,92.30
2017-08-17T19:01:16.293Z,92.54
2017-08-17T19:03:46.593Z,92.71
2017-08-17T19:06:14.819Z,93.18
2017-08-17T19:08:44.809Z,93.21
2017-08-17T19:13:47.969Z,93.18
2017-08-17T19:16:19.330Z,93.36
2017-08-17T19:18:48.255Z,93.43
2017-08-17T19:21:18.032Z,93.43
2017-08-17T19:23:47.437Z,93.45
2017-08-17T19:26:16.348Z,93.49
2017-08-17T19:28:46.769Z,93.53
2017-08-17T19:31:17.749Z,93.55
2017-08-17T19:33:47.408Z,93.59
2017-08-17T19:36:17.276Z,93.69
2017-08-17T19:38:46.461Z,93.82
2017-08-17T19:41:18.253Z,93.87
2017-08-17T19:43:47.568Z,93.95
2017-08-17T19:46:16.829Z,93.99
2017-08-17T19:48:51.517Z,94.01
2017-08-17T19:51:21.944Z,94.21
2017-08-17T19:53:52.210Z,94.35
2017-08-17T19:56:21.179Z,94.39
2017-08-17T19:58:52.043Z,94.44
2017-08-17T20:01:22.144Z,94.46
2017-08-17T20:03:52.577Z,94.55
2017-08-17T20:06:22.529Z,94.68
2017-08-17T20:08:52.085Z,94.71
2017-08-17T20:11:22.814Z,94.70
2017-08-17T20:13:52.927Z,94.69
2017-08-17T20:16:26.392Z,94.65
2017-08-17T20:18:58.402Z,94.71
2017-08-17T20:21:30.121Z,94.81
2017-08-17T20:24:00.540Z,94.91
2017-08-17T20:26:29.861Z,94.96
2017-08-17T20:29:02.525Z,94.99
2017-08-17T20:31:30.578Z,95.04
2017-08-17T20:33:59.329Z,95.02
2017-08-17T20:36:28.442Z,95.04
2017-08-17T20:38:57.335Z,95.02
2017-08-17T20:41:26.437Z,95.06
2017-08-17T20:43:54.234Z,95.04
2017-08-17T20:46:22.514Z,95.04
2017-08-17T20:48:50.758Z,95.04
2017-08-17T20:51:21.604Z,95.05
2017-08-17T20:53:51.403Z,95.02
2017-08-17T20:56:21.739Z,94.93
2017-08-17T20:58:50.437Z,94.92
2017-08-17T21:01:21.166Z,94.91
2017-08-17T21:03:49.646Z,94.87
2017-08-17T21:06:18.648Z,94.84
2017-08-17T21:08:47.700Z,94.88
2017-08-17T21:11:18.054Z,94.92
2017-08-17T21:13:47.272Z,94.92
2017-08-17T21:16:16.016Z,94.95
2017-08-17T21:18:44.758Z,94.94
2017-08-17T21:21:15.218Z,94.94
2017-08-17T21:23:44.176Z,94.96
2017-08-17T21:26:13.248Z,94.99
2017-08-17T21:28:43.165Z,95.07
2017-08-17T21:31:11.632Z,95.06
2017-08-17T21:33:40.652Z,95.07
2017-08-17T21:36:11.160Z,95.04
2017-08-17T21:38:39.944Z,95.06
2017-08-17T21:41:11.203Z,95.08
2017-08-17T21:43:43.921Z,95.11
2017-08-17T21:46:13.312Z,95.15
2017-08-17T21:48:42.271Z,95.22
2017-08-17T21:51:11.897Z,95.26
2017-08-17T21:53:40.240Z,95.26
2017-08-17T21:56:08.475Z,95.26
2017-08-17T21:58:37.792Z,95.28
2017-08-17T22:01:07.194Z,95.32
2017-08-17T22:03:35.799Z,95.32
2017-08-17T22:06:05.261Z,95.32
2017-08-17T22:08:33.517Z,95.25
2017-08-17T22:11:04.358Z,95.18
2017-08-17T22:13:34.553Z,95.14
2017-08-17T22:16:03.276Z,95.09
2017-08-17T22:18:31.200Z,95.11
2017-08-17T22:20:59.986Z,95.21
2017-08-17T22:23:28.454Z,95.27
2017-08-17T22:25:56.573Z,95.35
2017-08-17T22:28:25.880Z,95.37
2017-08-17T22:30:56.659Z,95.42
2017-08-17T22:33:27.017Z,95.48
2017-08-17T22:35:55.472Z,95.52
2017-08-17T22:38:24.541Z,95.57
2017-08-17T22:40:56.077Z,95.59
2017-08-17T22:43:25.124Z,95.61
2017-08-17T22:45:53.246Z,95.60
2017-08-17T22:48:21.864Z,95.61
2017-08-17T22:50:50.862Z,95.60
2017-08-17T22:53:21.547Z,95.65
2017-08-17T22:55:51.720Z,95.66
2017-08-17T22:58:20.478Z,95.68
2017-08-17T23:00:48.860Z,95.67
2017-08-17T23:03:19.332Z,95.61
2017-08-17T23:08:23.655Z,95.49
2017-08-17T23:10:54.133Z,95.50
2017-08-17T23:13:24.320Z,95.54
2017-08-17T23:15:58.040Z,95.61
2017-08-17T23:18:27.179Z,95.66
2017-08-17T23:20:55.965Z,95.67
2017-08-17T23:23:25.712Z,95.68
2017-08-17T23:25:54.861Z,95.66
2017-08-17T23:28:25.355Z,95.67
2017-08-17T23:30:53.801Z,95.64
2017-08-17T23:33:22.290Z,95.62
2017-08-17T23:35:52.734Z,95.63
2017-08-17T23:38:22.653Z,95.64
2017-08-17T23:40:51.587Z,95.66
2017-08-17T23:43:21.526Z,95.65
2017-08-17T23:45:49.892Z,95.65
2017-08-17T23:48:18.721Z,95.65
2017-08-17T23:50:48.847Z,95.69
2017-08-17T23:53:17.968Z,95.69
2017-08-17T23:55:47.348Z,95.65
2017-08-17T23:58:15.699Z,95.60
